Hunting Creek, North Carolina
Current Conditions -  °F | °C
As of 2:55 PM on Thursday 30 Oct 2014 (Local Time) from KUKF Reporting Station
Clear Clear  
Wind Chill: 61°   Ceiling: Unl
Heat Index: 61°   Visibility: 10mi
Dew Point: 36°   Wind: 5mph
Humidity: 39%   Direction: 70°ENE
Pressure: 30.04"   Gusts: NA
Location:  36.1997°N, 81.0764°W
Report Text: KUKF 301855Z AUTO 07004KT 10SM CLR 16/02 A3004 RMK AO2
Loading
Personal Weather Stations






























Interactive Weather Map
Tropical Storm Tracking
New forecast layout! Learn more

10-Day Weather Forecast

Advertisements
Track Severe Weather on mobile